Time;durP1;ratioP1;P1;durP2;ratioP2;P2;SDS_P1;SDS_P2;PMS_P1;PMS_P2;Temp;Humidity;BMP_temperature;BMP_pressure;BME280_temperature;BME280_humidity;BME280_pressure;Samples;Min_cycle;Max_cycle;Signal;HPM_P1;HPM_P2
2022/03/28 00:02:00;;;;;;;12.10;6.93;;;;;;;;;;5086081;28;20174;-74
2022/03/28 00:04:25;;;;;;;15.23;6.60;;;;;;;;;;5079053;28;20207;-74
2022/03/28 00:06:50;;;;;;;11.27;7.17;;;;;;;;;;5084943;28;20181;-73
2022/03/28 00:09:16;;;;;;;12.70;7.00;;;;;;;;;;5080476;28;20255;-74
2022/03/28 00:11:41;;;;;;;15.10;8.00;;;;;;;;;;5082535;28;20193;-74
2022/03/28 00:14:06;;;;;;;12.50;7.50;;;;;;;;;;5077946;28;20237;-74
2022/03/28 00:16:31;;;;;;;14.30;7.27;;;;;;;;;;5082166;28;20177;-73
2022/03/28 00:18:57;;;;;;;13.10;6.50;;;;;;;;;;5080610;28;20176;-73
2022/03/28 00:21:22;;;;;;;11.17;6.27;;;;;;;;;;5093563;28;20180;-73
2022/03/28 00:23:47;;;;;;;12.47;6.60;;;;;;;;;;5084048;28;20177;-73
2022/03/28 00:26:12;;;;;;;10.90;6.60;;;;;;;;;;5092574;28;20177;-73
2022/03/28 00:28:38;;;;;;;11.33;6.83;;;;;;;;;;5083464;28;20264;-74
2022/03/28 00:31:03;;;;;;;9.27;6.00;;;;;;;;;;5089905;28;20186;-74
2022/03/28 00:33:28;;;;;;;12.73;7.10;;;;;;;;;;5087687;28;20184;-73
2022/03/28 00:35:53;;;;;;;11.10;7.17;;;;;;;;;;5080039;28;20237;-73
2022/03/28 00:38:18;;;;;;;13.93;8.20;;;;;;;;;;5087807;28;20177;-73
2022/03/28 00:40:43;;;;;;;14.63;7.90;;;;;;;;;;5081548;28;20178;-74
2022/03/28 00:43:09;;;;;;;12.67;7.37;;;;;;;;;;5084587;28;20204;-74
2022/03/28 00:45:36;;;;;;;12.17;7.50;;;;;;;;;;5084414;28;20189;-74
2022/03/28 00:48:01;;;;;;;15.13;8.00;;;;;;;;;;5087743;28;20218;-74
2022/03/28 00:50:28;;;;;;;14.53;8.33;;;;;;;;;;5083327;28;20224;-73
2022/03/28 00:52:54;;;;;;;15.60;8.10;;;;;;;;;;5088287;28;20232;-73
2022/03/28 00:55:19;;;;;;;14.80;8.20;;;;;;;;;;5087955;28;20197;-74
2022/03/28 00:57:44;;;;;;;14.23;7.80;;;;;;;;;;5087832;28;20182;-74
2022/03/28 01:00:10;;;;;;;15.40;7.83;;;;;;;;;;5082482;28;20173;-73
2022/03/28 01:02:36;;;;;;;13.90;7.73;;;;;;;;;;5084335;28;20178;-74
2022/03/28 01:05:02;;;;;;;15.17;7.80;;;;;;;;;;5083455;28;20295;-73
2022/03/28 01:07:28;;;;;;;14.07;8.13;;;;;;;;;;5087599;28;20197;-73
2022/03/28 01:09:58;;;;;;;14.53;7.83;;;;;;;;;;5086178;28;20209;-73
2022/03/28 01:12:25;;;;;;;13.17;8.37;;;;;;;;;;5089217;28;20225;-73
2022/03/28 01:14:50;;;;;;;13.27;8.40;;;;;;;;;;5084106;28;20233;-73
2022/03/28 01:20:00;;;;;;;19.70;10.33;;;;;;;;;;5082471;28;20180;-73
2022/03/28 01:22:25;;;;;;;12.27;8.87;;;;;;;;;;5089628;28;20185;-74
2022/03/28 01:24:50;;;;;;;13.97;8.17;;;;;;;;;;5091653;28;20226;-73
2022/03/28 01:27:15;;;;;;;13.23;8.30;;;;;;;;;;5088519;28;20181;-74
2022/03/28 01:29:44;;;;;;;14.43;8.90;;;;;;;;;;5091481;28;20173;-73
2022/03/28 01:32:09;;;;;;;13.07;7.87;;;;;;;;;;5088130;28;20177;-73
2022/03/28 01:34:35;;;;;;;15.13;7.93;;;;;;;;;;5090188;28;20209;-73
2022/03/28 01:37:00;;;;;;;14.20;8.73;;;;;;;;;;5086269;28;20181;-74
2022/03/28 01:39:26;;;;;;;13.63;8.87;;;;;;;;;;5087332;28;20170;-73
2022/03/28 01:41:51;;;;;;;16.70;9.63;;;;;;;;;;5083500;28;20182;-74
2022/03/28 01:44:16;;;;;;;14.80;8.80;;;;;;;;;;5087187;28;20184;-73
2022/03/28 01:46:44;;;;;;;15.13;8.93;;;;;;;;;;5083654;28;20173;-74
2022/03/28 01:49:10;;;;;;;13.70;8.90;;;;;;;;;;5075208;28;20185;-73
2022/03/28 01:51:35;;;;;;;13.30;8.60;;;;;;;;;;5088319;28;20234;-74
2022/03/28 01:54:00;;;;;;;16.17;8.53;;;;;;;;;;5086862;28;20183;-74
2022/03/28 01:56:26;;;;;;;14.10;9.47;;;;;;;;;;5088504;28;20289;-73
2022/03/28 01:58:51;;;;;;;14.77;9.47;;;;;;;;;;5083579;28;20177;-73
2022/03/28 02:01:16;;;;;;;17.97;9.43;;;;;;;;;;5087983;28;20260;-74
2022/03/28 02:03:42;;;;;;;13.93;9.10;;;;;;;;;;5083726;28;20208;-74
2022/03/28 02:06:07;;;;;;;16.10;9.13;;;;;;;;;;5081397;28;20178;-73
2022/03/28 02:08:34;;;;;;;15.40;9.30;;;;;;;;;;5088321;28;20245;-74
2022/03/28 02:10:59;;;;;;;18.27;9.93;;;;;;;;;;5087738;28;20185;-73
2022/03/28 02:13:24;;;;;;;12.93;9.20;;;;;;;;;;5085694;28;20228;-74
2022/03/28 02:15:50;;;;;;;14.67;9.03;;;;;;;;;;5084276;28;20205;-73
2022/03/28 02:18:15;;;;;;;16.57;9.73;;;;;;;;;;5081090;28;20187;-73
2022/03/28 02:20:40;;;;;;;19.63;10.10;;;;;;;;;;5087605;28;20239;-73
2022/03/28 02:23:05;;;;;;;16.93;10.00;;;;;;;;;;5088194;28;20174;-73
2022/03/28 02:25:35;;;;;;;15.30;8.97;;;;;;;;;;5104411;28;20183;-73
2022/03/28 02:28:01;;;;;;;16.63;9.20;;;;;;;;;;5081247;28;20196;-74
2022/03/28 02:30:26;;;;;;;17.10;9.67;;;;;;;;;;5086844;28;20173;-74
2022/03/28 02:32:51;;;;;;;17.33;9.90;;;;;;;;;;5087790;28;20182;-73
2022/03/28 02:35:16;;;;;;;14.10;8.53;;;;;;;;;;5084824;28;20211;-73
2022/03/28 02:37:41;;;;;;;17.70;11.10;;;;;;;;;;5088330;28;20169;-74
2022/03/28 02:40:08;;;;;;;15.70;9.73;;;;;;;;;;5075270;28;20189;-74
2022/03/28 02:42:33;;;;;;;14.93;9.13;;;;;;;;;;5084464;28;20176;-73
2022/03/28 02:44:58;;;;;;;16.77;10.33;;;;;;;;;;5086316;28;20181;-73
2022/03/28 02:47:24;;;;;;;15.43;9.80;;;;;;;;;;5085175;28;20188;-73
2022/03/28 02:49:50;;;;;;;15.97;9.30;;;;;;;;;;5085463;28;20238;-73
2022/03/28 02:52:15;;;;;;;15.03;9.80;;;;;;;;;;5084470;28;20189;-74
2022/03/28 02:54:41;;;;;;;14.57;8.67;;;;;;;;;;5083193;28;20202;-74
2022/03/28 02:57:06;;;;;;;16.70;9.83;;;;;;;;;;5080925;28;20209;-74
2022/03/28 02:59:31;;;;;;;13.83;9.70;;;;;;;;;;5088113;28;20173;-73
2022/03/28 03:01:56;;;;;;;17.33;10.30;;;;;;;;;;5085425;28;20170;-74
2022/03/28 03:04:21;;;;;;;19.73;10.90;;;;;;;;;;5085762;28;20201;-73
2022/03/28 03:06:47;;;;;;;15.17;10.40;;;;;;;;;;5086400;28;20177;-74
2022/03/28 03:09:12;;;;;;;15.20;9.97;;;;;;;;;;5087888;28;20675;-73
2022/03/28 03:11:37;;;;;;;16.83;10.37;;;;;;;;;;5089707;28;20173;-74
2022/03/28 03:14:03;;;;;;;17.13;10.70;;;;;;;;;;5086175;28;20325;-73
2022/03/28 03:16:29;;;;;;;15.53;9.57;;;;;;;;;;5092858;28;20210;-73
2022/03/28 03:18:55;;;;;;;15.47;10.57;;;;;;;;;;5082596;28;20227;-74
2022/03/28 03:21:20;;;;;;;14.30;9.53;;;;;;;;;;5082891;28;20316;-74
2022/03/28 03:23:46;;;;;;;16.00;9.57;;;;;;;;;;5087002;28;20263;-73
2022/03/28 03:26:11;;;;;;;15.37;9.70;;;;;;;;;;5080296;28;20188;-74
2022/03/28 03:28:36;;;;;;;14.97;9.27;;;;;;;;;;5082069;28;21954;-74
2022/03/28 03:31:02;;;;;;;16.43;9.63;;;;;;;;;;5081894;28;20182;-73
2022/03/28 03:33:27;;;;;;;15.27;9.97;;;;;;;;;;5081867;28;20408;-73
2022/03/28 03:35:53;;;;;;;15.40;9.40;;;;;;;;;;5080314;28;20202;-74
2022/03/28 03:38:18;;;;;;;13.43;10.00;;;;;;;;;;5087638;28;20173;-74
2022/03/28 03:40:44;;;;;;;18.80;9.23;;;;;;;;;;5082002;28;20177;-74
2022/03/28 03:43:09;;;;;;;14.23;9.60;;;;;;;;;;5086325;28;20182;-74
2022/03/28 03:45:35;;;;;;;16.60;10.10;;;;;;;;;;5087579;28;20246;-74
2022/03/28 03:48:00;;;;;;;19.07;10.67;;;;;;;;;;5081100;28;20209;-74
2022/03/28 03:50:25;;;;;;;15.50;10.70;;;;;;;;;;5080449;28;20280;-74
2022/03/28 03:52:51;;;;;;;19.03;10.10;;;;;;;;;;5085723;28;20181;-73
2022/03/28 03:55:17;;;;;;;18.50;10.73;;;;;;;;;;5086406;28;20294;-74
2022/03/28 03:57:42;;;;;;;16.93;10.83;;;;;;;;;;5090911;28;20270;-73
2022/03/28 04:00:08;;;;;;;18.20;10.90;;;;;;;;;;5094098;28;20187;-74
2022/03/28 04:02:34;;;;;;;18.20;10.40;;;;;;;;;;5092880;28;20200;-74
2022/03/28 04:04:59;;;;;;;15.13;8.67;;;;;;;;;;5088294;28;20249;-74
2022/03/28 04:07:24;;;;;;;16.63;10.27;;;;;;;;;;5089638;28;20281;-74
2022/03/28 04:09:49;;;;;;;15.57;10.10;;;;;;;;;;5085284;28;20178;-74
2022/03/28 04:12:15;;;;;;;22.13;10.13;;;;;;;;;;5087892;28;20213;-74
2022/03/28 04:14:40;;;;;;;17.00;9.83;;;;;;;;;;5094562;28;20203;-74
2022/03/28 04:17:05;;;;;;;14.87;9.60;;;;;;;;;;5093540;28;20181;-73
2022/03/28 04:19:30;;;;;;;14.30;10.10;;;;;;;;;;5087706;28;20169;-74
2022/03/28 04:21:55;;;;;;;17.87;9.63;;;;;;;;;;5088108;28;20173;-73
2022/03/28 04:24:21;;;;;;;13.03;9.77;;;;;;;;;;5083823;28;20207;-73
2022/03/28 04:26:46;;;;;;;14.73;9.40;;;;;;;;;;5084658;28;20183;-73
2022/03/28 04:29:11;;;;;;;16.30;10.43;;;;;;;;;;5088041;28;20171;-74
2022/03/28 04:31:40;;;;;;;14.40;9.70;;;;;;;;;;5081313;28;20227;-74
2022/03/28 04:34:06;;;;;;;15.50;9.73;;;;;;;;;;5087455;28;20201;-74
2022/03/28 04:36:31;;;;;;;18.10;10.57;;;;;;;;;;5088452;28;20222;-73
2022/03/28 04:38:57;;;;;;;16.73;9.73;;;;;;;;;;5080673;28;20174;-73
2022/03/28 04:41:22;;;;;;;17.23;10.23;;;;;;;;;;5088904;28;20178;-73
2022/03/28 04:43:47;;;;;;;17.90;11.32;;;;;;;;;;5086561;28;20178;-74
2022/03/28 04:46:12;;;;;;;17.13;10.33;;;;;;;;;;5088033;28;20181;-73
2022/03/28 04:48:37;;;;;;;24.10;10.07;;;;;;;;;;5087294;28;20185;-73
2022/03/28 04:51:02;;;;;;;15.60;9.43;;;;;;;;;;5086656;28;20177;-73
2022/03/28 04:53:28;;;;;;;16.80;10.23;;;;;;;;;;5088645;28;20213;-73
2022/03/28 04:55:53;;;;;;;14.70;10.33;;;;;;;;;;5084396;28;20198;-73
2022/03/28 04:58:18;;;;;;;16.90;10.23;;;;;;;;;;5086552;28;20178;-73
2022/03/28 05:00:43;;;;;;;17.70;9.90;;;;;;;;;;5084822;28;20173;-74
2022/03/28 05:03:09;;;;;;;14.97;10.37;;;;;;;;;;5092149;28;20181;-73
2022/03/28 05:05:34;;;;;;;13.03;9.93;;;;;;;;;;5088779;28;20258;-73
2022/03/28 05:07:59;;;;;;;14.83;8.40;;;;;;;;;;5087559;28;20208;-74
2022/03/28 05:10:24;;;;;;;18.23;10.43;;;;;;;;;;5088307;28;20219;-74
2022/03/28 05:12:50;;;;;;;16.43;11.03;;;;;;;;;;5083872;28;20268;-73
2022/03/28 05:15:15;;;;;;;18.80;10.83;;;;;;;;;;5084713;28;20300;-74
2022/03/28 05:17:40;;;;;;;16.37;10.03;;;;;;;;;;5080305;28;20178;-73
2022/03/28 05:20:08;;;;;;;14.37;9.37;;;;;;;;;;5075658;28;20184;-73
2022/03/28 05:22:33;;;;;;;15.00;10.20;;;;;;;;;;5085120;28;20260;-74
2022/03/28 05:24:59;;;;;;;15.63;9.77;;;;;;;;;;5082718;28;20338;-73
2022/03/28 05:27:24;;;;;;;27.63;10.57;;;;;;;;;;5083282;28;20237;-73
2022/03/28 05:29:49;;;;;;;16.13;9.43;;;;;;;;;;5084473;28;20208;-73
2022/03/28 05:32:14;;;;;;;17.43;10.23;;;;;;;;;;5086802;28;20229;-73
2022/03/28 05:34:40;;;;;;;18.50;13.67;;;;;;;;;;5085338;28;20239;-73
2022/03/28 05:37:08;;;;;;;14.03;9.13;;;;;;;;;;5093052;28;20241;-73
2022/03/28 05:39:34;;;;;;;17.90;10.97;;;;;;;;;;5089667;28;20205;-73
2022/03/28 05:42:00;;;;;;;19.33;9.63;;;;;;;;;;5087554;28;20265;-73
2022/03/28 05:44:25;;;;;;;15.60;9.57;;;;;;;;;;5084122;28;20186;-73
2022/03/28 05:46:51;;;;;;;17.10;9.83;;;;;;;;;;5087588;28;20181;-73
2022/03/28 05:49:16;;;;;;;16.63;10.37;;;;;;;;;;5081601;28;20286;-74
2022/03/28 05:51:41;;;;;;;17.27;9.60;;;;;;;;;;5083891;28;20178;-73
2022/03/28 05:54:07;;;;;;;15.17;8.37;;;;;;;;;;5087853;28;20184;-73
2022/03/28 05:56:32;;;;;;;15.03;9.50;;;;;;;;;;5087528;28;20217;-73
2022/03/28 05:58:57;;;;;;;24.50;13.97;;;;;;;;;;5085336;28;20204;-73
2022/03/28 06:01:23;;;;;;;14.53;9.90;;;;;;;;;;5081609;28;20182;-74
2022/03/28 06:03:48;;;;;;;14.70;9.50;;;;;;;;;;5078974;28;20932;-74
2022/03/28 06:06:13;;;;;;;14.13;8.70;;;;;;;;;;5084425;28;20185;-74
2022/03/28 06:08:39;;;;;;;13.10;8.50;;;;;;;;;;5088255;28;20234;-73
2022/03/28 06:11:04;;;;;;;17.00;8.73;;;;;;;;;;5089874;28;20216;-73
2022/03/28 06:13:33;;;;;;;18.37;9.00;;;;;;;;;;5087107;28;20225;-74
2022/03/28 06:15:58;;;;;;;13.37;9.73;;;;;;;;;;5087011;28;20201;-73
2022/03/28 06:18:24;;;;;;;13.80;8.53;;;;;;;;;;5085935;28;20181;-74
2022/03/28 06:20:49;;;;;;;15.73;8.23;;;;;;;;;;5081984;28;20174;-73
2022/03/28 06:23:14;;;;;;;14.87;8.90;;;;;;;;;;5083551;28;20185;-74
2022/03/28 06:25:40;;;;;;;13.20;8.63;;;;;;;;;;5078788;28;20247;-73
2022/03/28 06:28:05;;;;;;;13.20;8.57;;;;;;;;;;5078354;28;20806;-74
2022/03/28 06:30:30;;;;;;;15.07;9.00;;;;;;;;;;5078174;28;20177;-74
2022/03/28 06:32:56;;;;;;;17.83;9.23;;;;;;;;;;5085711;28;20178;-74
2022/03/28 06:35:21;;;;;;;15.87;9.30;;;;;;;;;;5086090;28;20224;-73
2022/03/28 06:37:50;;;;;;;15.37;8.37;;;;;;;;;;5085670;28;20503;-73
2022/03/28 06:40:15;;;;;;;16.33;8.03;;;;;;;;;;5080694;28;20174;-74
2022/03/28 06:42:40;;;;;;;14.47;8.87;;;;;;;;;;5088558;28;20185;-73
2022/03/28 06:45:06;;;;;;;17.03;9.47;;;;;;;;;;5082232;28;20350;-73
2022/03/28 06:47:31;;;;;;;13.47;8.83;;;;;;;;;;5087492;28;20181;-74
2022/03/28 06:49:56;;;;;;;14.60;7.73;;;;;;;;;;5077657;28;20182;-73
2022/03/28 06:52:21;;;;;;;17.85;9.05;;;;;;;;;;5080364;28;20197;-74
2022/03/28 06:54:47;;;;;;;12.60;8.53;;;;;;;;;;5082361;28;20206;-74
2022/03/28 06:57:12;;;;;;;12.03;8.07;;;;;;;;;;5087988;28;20218;-74
2022/03/28 06:59:38;;;;;;;13.50;8.20;;;;;;;;;;5088506;28;20195;-74
2022/03/28 07:02:03;;;;;;;14.90;8.70;;;;;;;;;;5090821;28;20274;-73
2022/03/28 07:04:28;;;;;;;15.90;9.43;;;;;;;;;;5088073;28;20348;-74
2022/03/28 07:06:53;;;;;;;13.23;9.00;;;;;;;;;;5080376;28;20208;-73
2022/03/28 07:09:18;;;;;;;16.43;9.07;;;;;;;;;;5082050;28;20190;-73
2022/03/28 07:11:44;;;;;;;13.40;8.07;;;;;;;;;;5082580;28;20166;-73
2022/03/28 07:14:10;;;;;;;12.97;8.53;;;;;;;;;;5076881;28;20221;-74
2022/03/28 07:16:35;;;;;;;13.77;8.33;;;;;;;;;;5079584;28;20293;-73
2022/03/28 07:19:00;;;;;;;13.93;8.87;;;;;;;;;;5079146;28;20171;-74
2022/03/28 07:21:25;;;;;;;13.60;8.57;;;;;;;;;;5075515;28;20268;-74
2022/03/28 07:23:52;;;;;;;14.63;10.10;;;;;;;;;;5084550;28;20176;-74
2022/03/28 07:26:17;;;;;;;19.57;10.20;;;;;;;;;;5077739;28;20187;-73
2022/03/28 07:28:43;;;;;;;15.30;9.87;;;;;;;;;;5078044;28;20191;-73
2022/03/28 07:31:08;;;;;;;13.43;8.37;;;;;;;;;;5085586;28;20185;-73
2022/03/28 07:33:43;;;;;;;16.57;9.30;;;;;;;;;;5088465;28;20326;-73
2022/03/28 07:36:08;;;;;;;12.37;8.47;;;;;;;;;;5078958;28;20268;-73
2022/03/28 07:38:34;;;;;;;13.00;8.23;;;;;;;;;;5079188;28;20265;-73
2022/03/28 07:40:59;;;;;;;12.60;8.47;;;;;;;;;;5091111;28;20172;-73
2022/03/28 07:43:25;;;;;;;14.07;9.07;;;;;;;;;;5086025;28;20176;-73
2022/03/28 07:45:53;;;;;;;12.63;8.83;;;;;;;;;;5082730;28;20192;-74
2022/03/28 07:48:18;;;;;;;13.10;8.97;;;;;;;;;;5085947;28;20180;-73
2022/03/28 07:50:45;;;;;;;11.40;8.37;;;;;;;;;;5076415;28;20196;-73
2022/03/28 07:53:10;;;;;;;13.47;8.23;;;;;;;;;;5080156;28;20188;-74
2022/03/28 07:55:36;;;;;;;15.53;8.43;;;;;;;;;;5090068;28;20195;-74
2022/03/28 07:58:03;;;;;;;12.97;8.40;;;;;;;;;;5085431;28;20165;-73
2022/03/28 08:00:29;;;;;;;16.20;8.67;;;;;;;;;;5080397;28;20177;-73
2022/03/28 08:02:55;;;;;;;17.03;8.67;;;;;;;;;;5086330;28;20234;-73
2022/03/28 08:05:20;;;;;;;11.37;8.30;;;;;;;;;;5078157;28;20313;-74
2022/03/28 08:07:45;;;;;;;11.73;8.17;;;;;;;;;;5085978;28;20177;-74
2022/03/28 08:10:10;;;;;;;13.53;9.43;;;;;;;;;;5080060;28;20394;-73
2022/03/28 08:12:37;;;;;;;15.67;8.53;;;;;;;;;;5083597;28;20239;-73
2022/03/28 08:15:03;;;;;;;14.23;8.80;;;;;;;;;;5082867;28;20284;-73
2022/03/28 08:17:28;;;;;;;12.77;8.93;;;;;;;;;;5087773;28;20174;-74
2022/03/28 08:19:53;;;;;;;13.10;9.23;;;;;;;;;;5083821;28;20264;-74
2022/03/28 08:22:18;;;;;;;17.37;8.93;;;;;;;;;;5085403;28;20173;-73
2022/03/28 08:24:43;;;;;;;15.17;9.00;;;;;;;;;;5086024;28;20173;-73
2022/03/28 08:27:09;;;;;;;12.87;8.63;;;;;;;;;;5091175;28;20169;-73
2022/03/28 08:29:34;;;;;;;12.97;9.63;;;;;;;;;;5079801;28;20384;-73
2022/03/28 08:32:00;;;;;;;17.37;10.47;;;;;;;;;;5083221;28;20181;-73
2022/03/28 08:34:26;;;;;;;13.13;8.90;;;;;;;;;;5084106;28;20174;-73
2022/03/28 08:36:51;;;;;;;12.73;9.30;;;;;;;;;;5082727;28;20181;-74
2022/03/28 08:39:16;;;;;;;16.37;9.53;;;;;;;;;;5085596;28;20195;-73
2022/03/28 08:41:42;;;;;;;14.97;9.00;;;;;;;;;;5085987;28;20183;-75
2022/03/28 08:44:07;;;;;;;14.77;9.53;;;;;;;;;;5090130;28;20218;-73
2022/03/28 08:46:33;;;;;;;17.83;9.50;;;;;;;;;;5090524;28;20197;-74
2022/03/28 08:48:59;;;;;;;16.27;10.27;;;;;;;;;;5094479;28;20183;-74
2022/03/28 08:51:24;;;;;;;17.53;9.47;;;;;;;;;;5088054;28;20174;-73
2022/03/28 08:53:50;;;;;;;14.67;9.67;;;;;;;;;;5087748;28;20178;-74
2022/03/28 08:56:16;;;;;;;10.53;8.50;;;;;;;;;;5093118;28;20413;-73
2022/03/28 08:58:41;;;;;;;17.13;10.23;;;;;;;;;;5085606;28;20189;-74
2022/03/28 09:01:06;;;;;;;19.83;11.47;;;;;;;;;;5090919;28;20175;-74
2022/03/28 09:03:39;;;;;;;15.70;9.53;;;;;;;;;;5081421;28;20417;-74
2022/03/28 09:06:23;;;;;;;12.57;9.47;;;;;;;;;;5087067;28;20187;-74
2022/03/28 09:08:48;;;;;;;16.10;10.27;;;;;;;;;;5082592;28;20185;-73
2022/03/28 09:11:20;;;;;;;16.70;10.20;;;;;;;;;;5083000;28;20188;-73
2022/03/28 09:13:45;;;;;;;15.77;9.93;;;;;;;;;;5080690;28;20229;-74
2022/03/28 09:16:16;;;;;;;13.63;9.45;;;;;;;;;;5087431;28;20208;-73
2022/03/28 09:18:43;;;;;;;15.23;9.43;;;;;;;;;;5092687;28;20260;-74
2022/03/28 09:21:11;;;;;;;14.53;10.57;;;;;;;;;;5086025;28;20187;-74
2022/03/28 09:23:38;;;;;;;16.43;10.03;;;;;;;;;;5088927;28;21877;-73
2022/03/28 09:26:08;;;;;;;19.60;9.93;;;;;;;;;;5088983;28;20187;-73
2022/03/28 09:28:46;;;;;;;14.97;9.67;;;;;;;;;;5083320;28;20173;-73
2022/03/28 09:31:26;;;;;;;19.17;10.20;;;;;;;;;;5091539;28;20184;-73
2022/03/28 09:33:59;;;;;;;17.97;12.07;;;;;;;;;;5089987;28;20246;-74
2022/03/28 09:36:43;;;;;;;16.37;10.03;;;;;;;;;;5088306;28;20265;-74
2022/03/28 09:39:13;;;;;;;14.23;9.97;;;;;;;;;;5085390;28;20213;-73
2022/03/28 09:41:38;;;;;;;15.67;10.27;;;;;;;;;;5092110;28;20175;-74
2022/03/28 09:44:03;;;;;;;13.90;10.07;;;;;;;;;;5101973;28;20226;-73
2022/03/28 09:46:30;;;;;;;14.07;10.17;;;;;;;;;;5089428;28;20184;-73
2022/03/28 09:48:57;;;;;;;13.60;9.17;;;;;;;;;;5089226;28;20205;-73
2022/03/28 09:51:25;;;;;;;11.07;8.60;;;;;;;;;;5087545;28;20179;-74
2022/03/28 09:53:50;;;;;;;14.17;9.20;;;;;;;;;;5089490;28;20187;-74
2022/03/28 09:56:15;;;;;;;13.23;8.90;;;;;;;;;;5087396;28;20208;-74
2022/03/28 09:58:48;;;;;;;11.90;8.93;;;;;;;;;;5091901;28;20258;-74
2022/03/28 10:01:17;;;;;;;14.10;9.10;;;;;;;;;;5083906;28;21407;-74
2022/03/28 10:03:44;;;;;;;13.00;9.43;;;;;;;;;;5089252;28;20189;-74
2022/03/28 10:06:09;;;;;;;12.70;9.27;;;;;;;;;;5087878;28;20183;-73
2022/03/28 10:08:35;;;;;;;13.93;10.03;;;;;;;;;;5089988;28;20179;-74
2022/03/28 10:11:01;;;;;;;11.73;8.00;;;;;;;;;;5089420;28;20180;-73
2022/03/28 10:13:26;;;;;;;12.83;8.90;;;;;;;;;;5081316;28;20319;-73
2022/03/28 10:15:52;;;;;;;15.60;8.60;;;;;;;;;;5095874;28;20210;-74
2022/03/28 10:18:17;;;;;;;15.10;9.00;;;;;;;;;;5080220;28;20258;-74
2022/03/28 10:20:45;;;;;;;11.90;9.47;;;;;;;;;;5081976;28;20167;-73
2022/03/28 10:23:12;;;;;;;11.80;9.23;;;;;;;;;;5092248;28;20167;-73
2022/03/28 10:25:38;;;;;;;13.47;9.37;;;;;;;;;;5082771;28;20187;-73
2022/03/28 10:28:03;;;;;;;11.73;9.23;;;;;;;;;;5087746;28;20364;-73
2022/03/28 10:30:30;;;;;;;14.43;9.40;;;;;;;;;;5084533;28;20280;-74
2022/03/28 10:33:08;;;;;;;18.03;9.23;;;;;;;;;;5090964;28;20257;-74
2022/03/28 10:35:33;;;;;;;14.13;8.33;;;;;;;;;;5084507;28;20205;-73
2022/03/28 10:38:14;;;;;;;15.37;9.13;;;;;;;;;;5086133;28;20240;-74
2022/03/28 10:40:51;;;;;;;14.90;9.87;;;;;;;;;;5102839;28;20230;-74
2022/03/28 10:43:17;;;;;;;13.07;7.20;;;;;;;;;;5086403;28;20189;-73
2022/03/28 10:45:53;;;;;;;13.70;9.23;;;;;;;;;;5079435;28;20178;-73
2022/03/28 10:48:39;;;;;;;10.83;8.27;;;;;;;;;;5083897;28;20185;-73
2022/03/28 10:51:05;;;;;;;14.53;10.47;;;;;;;;;;5078596;28;20178;-74
2022/03/28 10:53:39;;;;;;;17.77;8.50;;;;;;;;;;5084345;28;20193;-73
2022/03/28 10:56:06;;;;;;;10.53;7.40;;;;;;;;;;5085831;28;20192;-73
2022/03/28 10:58:40;;;;;;;11.10;8.47;;;;;;;;;;5086004;28;20188;-74
2022/03/28 11:01:06;;;;;;;12.87;8.87;;;;;;;;;;5083136;28;20181;-74
2022/03/28 11:03:35;;;;;;;9.23;7.85;;;;;;;;;;5084787;28;20261;-74
2022/03/28 11:06:00;;;;;;;13.13;8.17;;;;;;;;;;5087806;28;20185;-73
2022/03/28 11:08:29;;;;;;;13.77;8.77;;;;;;;;;;5090354;28;20258;-74
2022/03/28 11:11:13;;;;;;;11.43;8.63;;;;;;;;;;5083887;28;20191;-73
2022/03/28 11:13:38;;;;;;;13.67;9.13;;;;;;;;;;5081742;28;20231;-73
2022/03/28 11:16:04;;;;;;;12.37;8.00;;;;;;;;;;5102191;27;20277;-74
2022/03/28 11:18:29;;;;;;;12.57;8.80;;;;;;;;;;5083291;28;20180;-73
2022/03/28 11:20:54;;;;;;;10.23;8.23;;;;;;;;;;5088291;28;20177;-74
2022/03/28 11:23:20;;;;;;;13.87;9.17;;;;;;;;;;5087478;28;20174;-74
2022/03/28 11:25:52;;;;;;;11.07;8.83;;;;;;;;;;5082964;28;20263;-73
2022/03/28 11:28:19;;;;;;;10.07;8.67;;;;;;;;;;5089669;28;20183;-74
2022/03/28 11:30:44;;;;;;;12.33;8.80;;;;;;;;;;5085631;28;20217;-73
2022/03/28 11:33:11;;;;;;;10.53;8.03;;;;;;;;;;5089915;28;20187;-74
2022/03/28 11:35:37;;;;;;;11.63;8.23;;;;;;;;;;5083161;28;20207;-73
2022/03/28 11:38:02;;;;;;;13.63;8.73;;;;;;;;;;5086757;28;20178;-74
2022/03/28 11:40:38;;;;;;;10.87;7.30;;;;;;;;;;5088300;28;20175;-73
2022/03/28 11:43:03;;;;;;;10.43;6.93;;;;;;;;;;5091390;28;20184;-73
2022/03/28 11:45:29;;;;;;;14.67;10.30;;;;;;;;;;5086905;28;20177;-74
2022/03/28 11:47:56;;;;;;;10.53;7.27;;;;;;;;;;5089038;28;20193;-74
2022/03/28 11:50:21;;;;;;;12.40;8.23;;;;;;;;;;5082452;28;20186;-74
2022/03/28 11:52:52;;;;;;;13.20;8.47;;;;;;;;;;5085379;28;20180;-73
2022/03/28 11:55:19;;;;;;;10.33;8.63;;;;;;;;;;5087653;28;20197;-74
2022/03/28 12:00:31;;;;;;;10.87;8.80;;;;;;;;;;5084819;28;20215;-74
2022/03/28 12:02:57;;;;;;;10.90;7.67;;;;;;;;;;5085457;28;20189;-74
2022/03/28 12:05:26;;;;;;;13.30;9.13;;;;;;;;;;5086818;28;20289;-74
2022/03/28 12:07:52;;;;;;;10.43;8.17;;;;;;;;;;5086679;28;20172;-74
2022/03/28 12:10:17;;;;;;;10.73;8.37;;;;;;;;;;5087221;28;20196;-74
2022/03/28 12:12:43;;;;;;;8.40;7.40;;;;;;;;;;5081455;28;20230;-74
2022/03/28 12:15:11;;;;;;;9.57;7.43;;;;;;;;;;5084622;28;20205;-74
2022/03/28 12:17:37;;;;;;;10.53;7.90;;;;;;;;;;5091447;27;20181;-74
2022/03/28 12:20:05;;;;;;;8.63;7.33;;;;;;;;;;5091573;28;20178;-73
2022/03/28 12:22:44;;;;;;;8.37;6.97;;;;;;;;;;5087177;28;20171;-73
2022/03/28 12:25:20;;;;;;;10.67;7.57;;;;;;;;;;5091514;28;20252;-73
2022/03/28 12:27:50;;;;;;;8.43;6.57;;;;;;;;;;5093493;28;20186;-73
2022/03/28 12:30:15;;;;;;;7.50;6.40;;;;;;;;;;5091316;28;20184;-74
2022/03/28 12:32:43;;;;;;;9.43;7.50;;;;;;;;;;5091519;28;20183;-74
2022/03/28 12:35:09;;;;;;;12.63;8.77;;;;;;;;;;5088206;28;20426;-73
2022/03/28 12:37:35;;;;;;;9.97;6.23;;;;;;;;;;5090915;28;20183;-73
2022/03/28 12:40:00;;;;;;;10.23;8.03;;;;;;;;;;5092004;28;20172;-76
2022/03/28 12:42:26;;;;;;;9.50;6.37;;;;;;;;;;5097144;28;20251;-76
2022/03/28 12:44:55;;;;;;;11.93;8.50;;;;;;;;;;5087553;28;20210;-73
2022/03/28 12:47:25;;;;;;;10.07;7.90;;;;;;;;;;5092927;28;20176;-73
2022/03/28 12:49:52;;;;;;;11.27;8.30;;;;;;;;;;5091770;28;20174;-74
2022/03/28 12:52:24;;;;;;;9.83;7.17;;;;;;;;;;5090747;28;20197;-73
2022/03/28 12:54:53;;;;;;;10.67;7.47;;;;;;;;;;5091908;28;20190;-74
2022/03/28 12:57:26;;;;;;;12.63;8.50;;;;;;;;;;5092892;28;20187;-73
2022/03/28 12:59:54;;;;;;;11.17;7.97;;;;;;;;;;5096906;28;20185;-74
2022/03/28 13:02:20;;;;;;;15.87;10.23;;;;;;;;;;5093505;28;20179;-73
2022/03/28 13:04:46;;;;;;;12.30;8.27;;;;;;;;;;5090202;28;20198;-73
2022/03/28 13:07:23;;;;;;;11.30;9.43;;;;;;;;;;5091923;28;20211;-73
2022/03/28 13:09:59;;;;;;;12.63;8.57;;;;;;;;;;5097161;28;20184;-74
2022/03/28 13:12:33;;;;;;;9.27;8.27;;;;;;;;;;5095299;28;20229;-73
2022/03/28 13:14:59;;;;;;;10.60;7.73;;;;;;;;;;5097338;28;20299;-73
2022/03/28 13:17:24;;;;;;;14.33;9.33;;;;;;;;;;5097319;28;20248;-74
2022/03/28 13:19:54;;;;;;;10.37;8.23;;;;;;;;;;5087808;28;20233;-74
2022/03/28 13:22:24;;;;;;;9.47;8.27;;;;;;;;;;5095816;28;20261;-73
2022/03/28 13:25:04;;;;;;;9.07;7.40;;;;;;;;;;5094321;28;20183;-73
2022/03/28 13:30:18;;;;;;;9.13;6.93;;;;;;;;;;5090359;28;20188;-73
2022/03/28 13:32:43;;;;;;;9.07;6.63;;;;;;;;;;5092193;28;20176;-73
2022/03/28 13:35:08;;;;;;;10.73;7.80;;;;;;;;;;5090652;28;20229;-74
2022/03/28 13:37:34;;;;;;;11.20;8.27;;;;;;;;;;5085969;28;20186;-73
2022/03/28 13:39:59;;;;;;;10.17;7.70;;;;;;;;;;5089499;28;20198;-73
2022/03/28 13:42:24;;;;;;;12.67;8.83;;;;;;;;;;5086325;28;20190;-74
2022/03/28 13:44:49;;;;;;;9.83;7.77;;;;;;;;;;5091276;28;20183;-74
2022/03/28 13:47:14;;;;;;;12.33;9.00;;;;;;;;;;5090496;28;20170;-73
2022/03/28 13:49:39;;;;;;;11.40;9.13;;;;;;;;;;5098709;28;20170;-73
2022/03/28 13:52:05;;;;;;;10.40;8.33;;;;;;;;;;5088791;28;20248;-73
2022/03/28 13:54:30;;;;;;;11.13;9.43;;;;;;;;;;5091728;28;20255;-73
2022/03/28 13:56:55;;;;;;;9.87;7.90;;;;;;;;;;5089887;28;20319;-73
2022/03/28 13:59:20;;;;;;;10.80;8.00;;;;;;;;;;5090824;28;20261;-74
2022/03/28 14:01:46;;;;;;;10.00;8.53;;;;;;;;;;5092824;28;20175;-73
2022/03/28 14:04:11;;;;;;;10.90;8.13;;;;;;;;;;5090793;28;20196;-73
2022/03/28 14:06:36;;;;;;;12.40;8.83;;;;;;;;;;5089517;28;20180;-74
2022/03/28 14:09:02;;;;;;;8.70;7.32;;;;;;;;;;5089247;28;20188;-74
2022/03/28 14:11:27;;;;;;;10.50;8.33;;;;;;;;;;5087977;28;20217;-73
2022/03/28 14:13:54;;;;;;;9.87;6.97;;;;;;;;;;5100676;28;20248;-73
2022/03/28 14:16:22;;;;;;;9.23;7.73;;;;;;;;;;5098990;28;20199;-73
2022/03/28 14:18:48;;;;;;;9.83;7.07;;;;;;;;;;5091500;28;20173;-74
2022/03/28 14:21:14;;;;;;;8.50;7.60;;;;;;;;;;5091620;28;20325;-73
2022/03/28 14:23:40;;;;;;;8.97;7.30;;;;;;;;;;5088944;28;20176;-74
2022/03/28 14:26:05;;;;;;;9.80;7.80;;;;;;;;;;5086200;28;20187;-73
2022/03/28 14:28:31;;;;;;;11.43;7.73;;;;;;;;;;5091292;28;20305;-73
2022/03/28 14:30:56;;;;;;;9.27;7.87;;;;;;;;;;5091547;28;20185;-73
2022/03/28 14:33:21;;;;;;;10.50;8.43;;;;;;;;;;5090273;28;20175;-73